createdAt,value
2017-12-10T00:02:18.689Z,89.26
2017-12-10T00:04:47.733Z,88.98
2017-12-10T00:07:16.016Z,88.99
2017-12-10T00:09:44.309Z,88.80
2017-12-10T00:12:12.613Z,88.61
2017-12-10T00:14:41.028Z,88.79
2017-12-10T00:17:09.296Z,89.33
2017-12-10T00:19:37.582Z,89.94
2017-12-10T00:22:05.909Z,90.04
2017-12-10T00:24:34.204Z,90.25
2017-12-10T00:27:03.320Z,90.82
2017-12-10T00:29:31.620Z,90.27
2017-12-10T00:31:59.918Z,90.45
2017-12-10T00:34:28.192Z,90.60
2017-12-10T00:36:57.954Z,90.64
2017-12-10T00:39:26.251Z,90.43
2017-12-10T00:41:54.836Z,90.49
2017-12-10T00:44:23.112Z,90.65
2017-12-10T00:46:51.388Z,90.58
2017-12-10T00:49:19.665Z,91.00
2017-12-10T00:51:47.964Z,90.70
2017-12-10T00:54:16.296Z,90.44
2017-12-10T00:56:44.588Z,90.21
2017-12-10T00:59:12.872Z,90.24
2017-12-10T01:01:41.157Z,90.09
2017-12-10T01:04:09.434Z,89.50
2017-12-10T01:06:37.715Z,89.66
2017-12-10T01:09:06.018Z,89.45
2017-12-10T01:11:34.332Z,89.45
2017-12-10T01:14:05.173Z,89.17
2017-12-10T01:16:33.465Z,89.29
2017-12-10T01:19:01.844Z,89.03
2017-12-10T01:21:30.130Z,88.93
2017-12-10T01:23:58.418Z,88.99
2017-12-10T01:26:26.712Z,88.85
2017-12-10T01:28:55.078Z,88.85
2017-12-10T01:31:23.348Z,89.05
2017-12-10T01:33:51.612Z,88.56
2017-12-10T01:36:19.897Z,88.78
2017-12-10T01:38:48.189Z,88.53
2017-12-10T01:41:16.481Z,88.09
2017-12-10T01:43:44.769Z,87.97
2017-12-10T01:46:13.065Z,88.05
2017-12-10T01:48:41.433Z,88.23
2017-12-10T01:51:10.475Z,88.25
2017-12-10T01:53:38.768Z,87.90
2017-12-10T01:56:07.060Z,88.08
2017-12-10T01:58:35.396Z,87.38
2017-12-10T02:01:03.688Z,87.07
2017-12-10T02:03:31.976Z,86.82
2017-12-10T02:06:00.257Z,87.03
2017-12-10T02:08:28.558Z,86.64
2017-12-10T02:10:57.607Z,87.01
2017-12-10T02:13:25.904Z,87.40
2017-12-10T02:15:54.190Z,87.07
2017-12-10T02:18:22.487Z,86.98
2017-12-10T02:20:51.549Z,87.01
2017-12-10T02:23:20.001Z,87.21
2017-12-10T02:25:48.296Z,87.16
2017-12-10T02:28:16.583Z,87.02
2017-12-10T02:30:44.857Z,86.70
2017-12-10T02:33:17.704Z,87.24
2017-12-10T02:35:45.985Z,87.34
2017-12-10T02:38:14.260Z,87.23
2017-12-10T02:40:42.532Z,87.58
2017-12-10T02:43:11.232Z,87.77
2017-12-10T02:45:39.523Z,88.17
2017-12-10T02:48:07.801Z,88.02
2017-12-10T02:50:36.089Z,88.48
2017-12-10T02:53:04.379Z,88.67
2017-12-10T02:55:36.517Z,89.05
2017-12-10T02:58:04.838Z,89.24
2017-12-10T03:00:33.988Z,89.66
2017-12-10T03:03:02.275Z,89.56
2017-12-10T03:05:30.569Z,89.68
2017-12-10T03:07:58.852Z,89.66
2017-12-10T03:10:28.768Z,89.25
2017-12-10T03:12:57.081Z,89.67
2017-12-10T03:15:25.369Z,89.26
2017-12-10T03:17:53.651Z,89.66
2017-12-10T03:20:21.945Z,89.58
2017-12-10T03:22:50.229Z,89.42
2017-12-10T03:25:18.524Z,89.62
2017-12-10T03:27:46.803Z,89.58
2017-12-10T03:30:15.086Z,89.29
2017-12-10T03:32:44.138Z,89.80
2017-12-10T03:35:12.423Z,89.81
2017-12-10T03:37:40.708Z,90.33
2017-12-10T03:40:08.980Z,90.55
2017-12-10T03:42:37.269Z,90.12
2017-12-10T03:45:05.544Z,90.37
2017-12-10T03:47:33.828Z,90.29
2017-12-10T03:50:02.119Z,90.53
2017-12-10T03:52:31.194Z,90.89
2017-12-10T03:54:59.544Z,91.25
2017-12-10T03:57:33.097Z,91.30
2017-12-10T04:00:01.375Z,91.12
2017-12-10T04:02:29.656Z,91.30
2017-12-10T04:04:57.952Z,90.96
2017-12-10T04:07:26.241Z,91.17
2017-12-10T04:09:54.530Z,91.71
2017-12-10T04:12:22.812Z,91.24
2017-12-10T04:14:51.101Z,91.28
2017-12-10T04:17:19.392Z,91.75
2017-12-10T04:19:48.436Z,91.56
2017-12-10T04:22:16.743Z,91.76
2017-12-10T04:24:45.033Z,91.64
2017-12-10T04:27:13.312Z,91.91
2017-12-10T04:29:41.602Z,91.55
2017-12-10T04:32:10.661Z,91.35
2017-12-10T04:34:38.948Z,90.89
2017-12-10T04:37:07.236Z,91.25
2017-12-10T04:39:35.530Z,90.95
2017-12-10T04:42:04.565Z,90.81
2017-12-10T04:44:32.849Z,90.74
2017-12-10T04:47:01.136Z,90.97
2017-12-10T04:49:29.413Z,90.67
2017-12-10T04:51:57.693Z,90.59
2017-12-10T04:54:25.990Z,90.33
2017-12-10T04:56:55.059Z,90.71
2017-12-10T04:59:23.338Z,90.69
2017-12-10T05:01:51.632Z,90.90
2017-12-10T05:04:19.934Z,91.12
2017-12-10T05:06:48.227Z,90.99
2017-12-10T05:09:16.560Z,91.23
2017-12-10T05:11:46.085Z,91.09
2017-12-10T05:14:14.368Z,90.91
2017-12-10T05:16:42.657Z,90.89
2017-12-10T05:19:10.941Z,90.70
2017-12-10T05:21:39.224Z,90.71
2017-12-10T05:24:07.513Z,90.42
2017-12-10T05:26:35.790Z,90.34
2017-12-10T05:29:04.068Z,90.40
2017-12-10T05:31:32.353Z,91.21
2017-12-10T05:34:00.648Z,91.45
2017-12-10T05:36:28.945Z,91.36
2017-12-10T05:38:57.231Z,91.76
2017-12-10T05:41:25.520Z,91.65
2017-12-10T05:43:53.805Z,91.96
2017-12-10T05:46:22.089Z,91.49
2017-12-10T05:48:50.367Z,91.33
2017-12-10T05:51:18.646Z,91.23
2017-12-10T05:53:46.929Z,90.58
2017-12-10T05:56:15.214Z,90.72
2017-12-10T05:58:43.492Z,90.81
2017-12-10T06:01:12.654Z,91.02
2017-12-10T06:03:41.675Z,90.44
2017-12-10T06:06:09.967Z,90.52
2017-12-10T06:08:38.240Z,90.36
2017-12-10T06:11:06.572Z,91.04
2017-12-10T06:13:34.867Z,90.88
2017-12-10T06:16:04.024Z,91.37
2017-12-10T06:18:33.072Z,91.35
2017-12-10T06:21:01.352Z,90.98
2017-12-10T06:23:29.644Z,90.98
2017-12-10T06:25:57.937Z,90.62
2017-12-10T06:28:26.216Z,91.12
2017-12-10T06:30:55.316Z,90.72
2017-12-10T06:33:23.612Z,91.10
2017-12-10T06:35:51.900Z,90.85
2017-12-10T06:38:20.175Z,90.61
2017-12-10T06:40:48.455Z,90.52
2017-12-10T06:43:16.729Z,90.42
2017-12-10T06:45:45.006Z,90.70
2017-12-10T06:48:14.094Z,90.34
2017-12-10T06:50:42.376Z,90.49
2017-12-10T06:53:10.656Z,91.05
2017-12-10T06:55:38.932Z,91.08
2017-12-10T06:58:07.219Z,90.83
2017-12-10T07:00:35.501Z,90.53
2017-12-10T07:03:03.790Z,91.01
2017-12-10T07:05:32.064Z,90.39
2017-12-10T07:08:00.349Z,90.32
2017-12-10T07:10:28.637Z,89.49
2017-12-10T07:12:56.916Z,90.29
2017-12-10T07:15:25.225Z,89.68
2017-12-10T07:17:54.480Z,89.54
2017-12-10T07:20:22.778Z,89.80
2017-12-10T07:22:51.843Z,89.70
2017-12-10T07:25:20.129Z,90.58
2017-12-10T07:27:48.436Z,90.52
2017-12-10T07:30:16.717Z,90.54
2017-12-10T07:32:44.996Z,91.19
2017-12-10T07:35:13.312Z,91.38
2017-12-10T07:37:41.599Z,91.14
2017-12-10T07:40:09.881Z,91.29
2017-12-10T07:42:38.173Z,91.66
2017-12-10T07:45:06.462Z,91.49
2017-12-10T07:47:34.773Z,91.68
2017-12-10T07:50:03.061Z,91.52
2017-12-10T07:52:31.336Z,90.90
2017-12-10T07:54:59.621Z,90.94
2017-12-10T07:57:27.903Z,91.04
2017-12-10T07:59:56.185Z,91.30
2017-12-10T08:02:24.468Z,90.75
2017-12-10T08:04:52.767Z,90.36
2017-12-10T08:07:21.044Z,89.79
2017-12-10T08:09:50.108Z,89.90
2017-12-10T08:12:18.408Z,90.01
2017-12-10T08:14:47.488Z,90.03
2017-12-10T08:17:15.780Z,89.32
2017-12-10T08:19:44.090Z,89.53
2017-12-10T08:22:12.905Z,89.42
2017-12-10T08:24:41.576Z,89.24
2017-12-10T08:27:09.866Z,89.33
2017-12-10T08:29:38.141Z,88.72
2017-12-10T08:32:06.417Z,89.24
2017-12-10T08:34:34.701Z,88.78
2017-12-10T08:37:02.989Z,88.42
2017-12-10T08:39:31.303Z,88.58
2017-12-10T08:42:00.093Z,87.66
2017-12-10T08:44:28.393Z,87.96
2017-12-10T08:46:56.695Z,87.84
2017-12-10T08:49:25.025Z,88.03
2017-12-10T08:51:54.072Z,88.41
2017-12-10T08:54:22.354Z,88.31
2017-12-10T08:56:50.640Z,89.03
2017-12-10T08:59:18.935Z,88.46
2017-12-10T09:01:47.212Z,88.83
2017-12-10T09:04:15.531Z,89.05
2017-12-10T09:06:44.900Z,89.03
2017-12-10T09:09:13.949Z,89.27
2017-12-10T09:11:42.241Z,88.62
2017-12-10T09:14:10.523Z,88.64
2017-12-10T09:16:39.741Z,89.07
2017-12-10T09:19:08.027Z,89.07
2017-12-10T09:21:37.069Z,88.59
2017-12-10T09:24:05.342Z,88.88
2017-12-10T09:26:33.632Z,88.44
2017-12-10T09:29:01.943Z,88.89
2017-12-10T09:31:30.220Z,88.53
2017-12-10T09:33:59.499Z,88.36
2017-12-10T09:36:27.988Z,88.30
2017-12-10T09:38:56.291Z,88.80
2017-12-10T09:41:25.398Z,88.91
2017-12-10T09:43:56.041Z,88.34
2017-12-10T09:46:24.865Z,88.22
2017-12-10T09:48:54.757Z,89.11
2017-12-10T09:51:23.065Z,88.33
2017-12-10T09:53:51.357Z,88.79
2017-12-10T09:56:19.662Z,88.83
2017-12-10T09:58:48.015Z,88.86
2017-12-10T10:01:16.889Z,88.84
2017-12-10T10:03:45.194Z,88.72
2017-12-10T10:06:13.501Z,88.91
2017-12-10T10:08:41.892Z,89.03
2017-12-10T10:11:10.206Z,88.43
2017-12-10T10:13:38.474Z,88.30
2017-12-10T10:16:06.871Z,88.07
2017-12-10T10:18:35.903Z,88.23
2017-12-10T10:21:04.170Z,87.99
2017-12-10T10:23:32.440Z,88.62
2017-12-10T10:26:00.738Z,88.00
2017-12-10T10:28:29.028Z,87.78
2017-12-10T10:30:57.357Z,86.71
2017-12-10T10:33:25.640Z,86.59
2017-12-10T10:35:53.929Z,86.42
2017-12-10T10:38:22.216Z,86.54
2017-12-10T10:40:50.508Z,86.60
2017-12-10T10:43:18.816Z,86.55
2017-12-10T10:45:47.928Z,86.40
2017-12-10T10:48:16.316Z,86.82
2017-12-10T10:50:44.642Z,86.62
2017-12-10T10:53:12.945Z,87.00
2017-12-10T10:55:41.231Z,87.38
2017-12-10T10:58:10.399Z,87.42
2017-12-10T11:00:39.736Z,87.57
2017-12-10T11:03:08.081Z,87.64
2017-12-10T11:05:36.412Z,88.13
2017-12-10T11:08:04.759Z,87.81
2017-12-10T11:10:33.064Z,87.16
2017-12-10T11:13:01.391Z,88.52
2017-12-10T11:15:29.753Z,89.13
2017-12-10T11:17:58.986Z,89.07
2017-12-10T11:20:27.348Z,89.33
2017-12-10T11:22:55.628Z,89.80
2017-12-10T11:25:24.224Z,89.54
2017-12-10T11:27:52.605Z,90.14
2017-12-10T11:30:21.940Z,89.81
2017-12-10T11:32:50.245Z,90.22
2017-12-10T11:35:18.618Z,89.88
2017-12-10T11:37:46.892Z,90.61
2017-12-10T11:40:15.181Z,90.36
2017-12-10T11:42:43.500Z,90.37
2017-12-10T11:45:12.610Z,90.58
2017-12-10T11:47:40.973Z,90.46
2017-12-10T11:50:09.286Z,90.72
2017-12-10T11:52:37.593Z,90.72
2017-12-10T11:55:05.906Z,90.69
2017-12-10T11:57:35.028Z,91.44
2017-12-10T12:00:03.333Z,92.15
2017-12-10T12:02:31.864Z,91.98
2017-12-10T12:05:00.212Z,91.84
2017-12-10T12:07:28.744Z,92.47
2017-12-10T12:09:57.297Z,92.25
2017-12-10T12:12:26.038Z,92.30
2017-12-10T12:14:54.712Z,93.14
2017-12-10T12:17:23.113Z,93.48
2017-12-10T12:19:51.433Z,93.98
2017-12-10T12:22:19.730Z,94.87
2017-12-10T12:24:48.110Z,93.97
2017-12-10T12:27:16.421Z,94.36
2017-12-10T12:29:44.810Z,93.89
2017-12-10T12:32:13.548Z,93.30
2017-12-10T12:34:42.516Z,94.03
2017-12-10T12:37:11.812Z,95.74
2017-12-10T12:39:40.965Z,96.18
2017-12-10T12:42:09.387Z,95.83
2017-12-10T12:44:37.692Z,95.21
2017-12-10T12:47:06.036Z,94.75
2017-12-10T12:49:34.346Z,94.72
2017-12-10T12:52:02.655Z,94.07
2017-12-10T12:54:31.075Z,93.86
2017-12-10T12:56:59.569Z,94.33
2017-12-10T12:59:27.956Z,93.66
2017-12-10T13:01:56.346Z,94.50
2017-12-10T13:04:24.830Z,94.36
2017-12-10T13:06:53.164Z,94.13
2017-12-10T13:09:21.445Z,94.07
2017-12-10T13:11:49.862Z,92.92
2017-12-10T13:14:18.176Z,93.53
2017-12-10T13:16:46.901Z,93.32
2017-12-10T13:19:15.294Z,92.79
2017-12-10T13:21:43.606Z,92.74
2017-12-10T13:24:12.033Z,92.57
2017-12-10T13:26:40.396Z,92.51
2017-12-10T13:29:08.975Z,92.60
2017-12-10T13:31:38.078Z,92.65
2017-12-10T13:34:06.361Z,92.67
2017-12-10T13:36:35.529Z,92.88
2017-12-10T13:39:04.930Z,92.12
2017-12-10T13:41:33.611Z,91.92
2017-12-10T13:44:02.026Z,92.00
2017-12-10T13:46:31.154Z,92.04
2017-12-10T13:48:59.480Z,93.05
2017-12-10T13:51:27.824Z,93.12
2017-12-10T13:53:56.948Z,93.53
2017-12-10T13:56:25.387Z,93.71
2017-12-10T13:58:54.628Z,93.35
2017-12-10T14:01:23.882Z,93.63
2017-12-10T14:03:52.174Z,93.63
2017-12-10T14:06:20.460Z,92.72
2017-12-10T14:08:48.921Z,92.90
2017-12-10T14:11:17.320Z,93.71
2017-12-10T14:13:45.857Z,93.34
2017-12-10T14:16:14.352Z,93.75
2017-12-10T14:18:43.631Z,93.34
2017-12-10T14:21:12.277Z,92.95
2017-12-10T14:23:41.462Z,92.56
2017-12-10T14:26:10.270Z,91.44
2017-12-10T14:28:39.930Z,92.23
2017-12-10T14:31:08.240Z,92.89
2017-12-10T14:33:37.002Z,93.63
2017-12-10T14:36:05.469Z,93.72
2017-12-10T14:38:33.915Z,93.84
2017-12-10T14:41:02.748Z,94.14
2017-12-10T14:43:31.552Z,94.29
2017-12-10T14:46:00.310Z,94.32
2017-12-10T14:48:28.942Z,94.11
2017-12-10T14:50:57.601Z,94.45
2017-12-10T14:53:26.209Z,94.72
2017-12-10T14:55:54.544Z,95.12
2017-12-10T14:58:23.288Z,95.03
2017-12-10T15:00:51.650Z,95.46
2017-12-10T15:03:20.224Z,95.03
2017-12-10T15:05:48.621Z,95.15
2017-12-10T15:08:18.087Z,94.99
2017-12-10T15:10:46.631Z,94.72
2017-12-10T15:13:15.290Z,94.86
2017-12-10T15:15:43.642Z,94.84
2017-12-10T15:18:12.042Z,95.15
2017-12-10T15:20:40.519Z,95.35
2017-12-10T15:23:08.874Z,95.35
2017-12-10T15:25:37.173Z,95.27
2017-12-10T15:28:05.465Z,95.58
2017-12-10T15:30:33.820Z,95.82
2017-12-10T15:33:02.174Z,96.07
2017-12-10T15:35:30.487Z,95.76
2017-12-10T15:37:58.769Z,95.78
2017-12-10T15:40:27.067Z,96.37
2017-12-10T15:42:55.354Z,96.62
2017-12-10T15:45:24.322Z,96.79
2017-12-10T15:47:52.600Z,97.12
2017-12-10T15:50:21.167Z,97.22
2017-12-10T15:52:49.822Z,97.16
2017-12-10T15:55:18.229Z,97.34
2017-12-10T15:57:46.724Z,97.91
2017-12-10T16:00:15.590Z,98.03
2017-12-10T16:02:44.889Z,97.81
2017-12-10T16:05:13.450Z,97.80
2017-12-10T16:07:41.913Z,98.09
2017-12-10T16:10:10.337Z,98.70
2017-12-10T16:12:38.903Z,99.15
2017-12-10T16:15:07.439Z,99.29
2017-12-10T16:17:36.357Z,100.00
2017-12-10T16:20:05.439Z,100.00
2017-12-10T16:22:34.564Z,100.00
2017-12-10T16:25:05.115Z,99.83
2017-12-10T16:27:34.798Z,100.00
2017-12-10T16:30:04.581Z,100.00
2017-12-10T16:32:34.389Z,100.00
2017-12-10T16:35:04.247Z,100.00
2017-12-10T16:37:34.440Z,100.00
2017-12-10T16:40:04.332Z,100.00
2017-12-10T16:42:34.224Z,100.00
2017-12-10T16:45:04.426Z,100.00
2017-12-10T16:47:34.438Z,99.82
2017-12-10T16:50:04.277Z,99.99
2017-12-10T16:52:34.335Z,100.00
2017-12-10T16:55:05.780Z,100.00
2017-12-10T16:57:35.798Z,100.00
2017-12-10T17:00:05.958Z,100.00
2017-12-10T17:02:36.066Z,100.00
2017-12-10T17:05:06.098Z,100.00
2017-12-10T17:07:36.175Z,100.00
2017-12-10T17:10:06.189Z,100.00
2017-12-10T17:12:36.057Z,100.00
2017-12-10T17:15:07.282Z,100.00
2017-12-10T17:17:37.332Z,99.70
2017-12-10T17:20:07.151Z,100.00
2017-12-10T17:22:37.150Z,100.00
2017-12-10T17:25:07.162Z,100.00
2017-12-10T17:27:37.054Z,100.00
2017-12-10T17:30:06.886Z,100.00
2017-12-10T17:32:36.935Z,100.00
2017-12-10T17:35:07.140Z,100.00
2017-12-10T17:37:37.166Z,100.00
2017-12-10T17:40:07.081Z,100.00
2017-12-10T17:42:36.946Z,100.00
2017-12-10T17:45:07.807Z,100.00
2017-12-10T17:47:37.794Z,100.00
2017-12-10T17:50:07.774Z,100.00
2017-12-10T17:52:38.453Z,100.00
2017-12-10T17:55:08.572Z,100.00
2017-12-10T17:57:38.504Z,100.00
2017-12-10T18:00:08.827Z,100.00
2017-12-10T18:02:40.648Z,100.00
2017-12-10T18:05:12.411Z,100.00
2017-12-10T18:07:42.474Z,100.00
2017-12-10T18:10:12.663Z,100.00
2017-12-10T18:12:42.652Z,100.00
2017-12-10T18:15:12.667Z,100.00
2017-12-10T18:17:42.759Z,100.00
2017-12-10T18:20:13.467Z,99.65
2017-12-10T18:22:43.595Z,99.67
2017-12-10T18:25:13.667Z,99.83
2017-12-10T18:27:43.614Z,99.54
2017-12-10T18:30:13.772Z,99.42
2017-12-10T18:32:43.903Z,99.47
2017-12-10T18:35:14.269Z,99.56
2017-12-10T18:37:44.486Z,99.56
2017-12-10T18:40:14.580Z,99.45
2017-12-10T18:42:44.583Z,99.59
2017-12-10T18:45:14.607Z,99.53
2017-12-10T18:47:44.568Z,99.45
2017-12-10T18:50:14.982Z,99.31
2017-12-10T18:52:44.910Z,99.07
2017-12-10T18:55:14.959Z,98.88
2017-12-10T18:57:45.868Z,98.67
2017-12-10T19:00:16.035Z,98.65
2017-12-10T19:02:46.744Z,98.25
2017-12-10T19:05:16.903Z,98.41
2017-12-10T19:07:46.792Z,98.46
2017-12-10T19:10:17.729Z,98.25
2017-12-10T19:12:47.812Z,98.48
2017-12-10T19:15:17.715Z,98.32
2017-12-10T19:17:47.681Z,98.32
2017-12-10T19:20:17.846Z,98.36
2017-12-10T19:22:47.980Z,99.15
2017-12-10T19:25:18.041Z,98.78
2017-12-10T19:27:47.970Z,98.30
2017-12-10T19:30:18.017Z,98.12
2017-12-10T19:32:49.800Z,98.26
2017-12-10T19:35:19.965Z,98.59
2017-12-10T19:37:49.939Z,98.31
2017-12-10T19:40:19.950Z,98.97
2017-12-10T19:42:49.872Z,98.09
2017-12-10T19:45:19.919Z,98.86
2017-12-10T19:47:49.919Z,98.51
2017-12-10T19:50:19.996Z,98.27
2017-12-10T19:52:50.114Z,98.30
2017-12-10T19:55:20.161Z,98.62
2017-12-10T19:57:50.299Z,98.72
2017-12-10T20:00:20.827Z,98.82
2017-12-10T20:02:51.542Z,98.74
2017-12-10T20:05:21.674Z,98.56
2017-12-10T20:07:52.410Z,98.94
2017-12-10T20:10:22.488Z,98.41
2017-12-10T20:12:53.452Z,97.81
2017-12-10T20:15:23.439Z,98.04
2017-12-10T20:17:53.386Z,97.99
2017-12-10T20:20:23.405Z,98.00
2017-12-10T20:22:55.212Z,97.92
2017-12-10T20:25:25.221Z,98.42
2017-12-10T20:27:55.215Z,98.08
2017-12-10T20:46:30.151Z,98.82
2017-12-10T20:49:01.106Z,99.09
2017-12-10T20:51:31.210Z,98.74
2017-12-10T20:54:02.099Z,98.76
2017-12-10T20:56:32.070Z,98.50
2017-12-10T20:59:02.009Z,98.06
2017-12-10T21:01:31.915Z,98.53
2017-12-10T21:04:01.917Z,98.55
2017-12-10T21:06:32.017Z,98.54
2017-12-10T21:09:02.018Z,99.04
2017-12-10T21:11:32.224Z,98.96
2017-12-10T21:14:02.146Z,99.80
2017-12-10T21:16:32.536Z,99.46
2017-12-10T21:19:02.481Z,99.70
2017-12-10T21:21:32.425Z,100.00
2017-12-10T21:24:02.408Z,100.00
2017-12-10T21:26:33.181Z,100.00
2017-12-10T21:29:03.174Z,100.00
2017-12-10T21:31:33.123Z,100.00
2017-12-10T21:34:03.094Z,100.00
2017-12-10T21:36:33.111Z,100.00
2017-12-10T21:39:03.133Z,100.00
2017-12-10T21:41:33.061Z,100.00
2017-12-10T21:44:02.953Z,100.00
2017-12-10T21:46:32.746Z,100.00
2017-12-10T21:49:02.527Z,100.00
2017-12-10T21:51:32.126Z,100.00
2017-12-10T21:54:02.377Z,100.00
2017-12-10T21:56:32.227Z,100.00
2017-12-10T21:59:02.157Z,100.00
2017-12-10T22:01:31.608Z,100.00
2017-12-10T22:04:01.674Z,99.29
2017-12-10T22:06:30.458Z,98.75
2017-12-10T22:08:59.630Z,98.61
2017-12-10T22:11:30.411Z,98.27
2017-12-10T22:13:58.704Z,97.07
2017-12-10T22:16:27.775Z,96.47
2017-12-10T22:18:56.065Z,96.02
2017-12-10T22:21:24.356Z,96.71
2017-12-10T22:23:53.482Z,96.55
2017-12-10T22:26:21.726Z,96.18
2017-12-10T22:28:50.025Z,96.42
2017-12-10T22:31:18.301Z,96.47
2017-12-10T22:33:46.581Z,96.40
2017-12-10T22:36:14.873Z,96.45
2017-12-10T22:38:43.156Z,96.30
2017-12-10T22:41:11.493Z,96.15
2017-12-10T22:43:40.541Z,95.50
2017-12-10T22:46:08.849Z,94.09
2017-12-10T22:48:37.138Z,94.12
2017-12-10T22:51:05.468Z,93.44
2017-12-10T22:53:33.769Z,93.81
2017-12-10T22:56:02.062Z,93.47
2017-12-10T22:58:31.126Z,93.01
2017-12-10T23:00:59.401Z,91.98
2017-12-10T23:03:27.680Z,91.24
2017-12-10T23:05:55.970Z,90.49
2017-12-10T23:08:24.740Z,91.20
2017-12-10T23:10:53.013Z,90.44
2017-12-10T23:13:33.063Z,91.20
2017-12-10T23:16:01.344Z,91.25
2017-12-10T23:18:29.645Z,91.25
2017-12-10T23:20:57.925Z,91.84
2017-12-10T23:23:26.210Z,92.63
2017-12-10T23:25:55.693Z,93.09
2017-12-10T23:28:23.987Z,93.63
2017-12-10T23:30:52.301Z,94.48
2017-12-10T23:33:20.598Z,95.34
2017-12-10T23:35:48.896Z,95.85
2017-12-10T23:38:17.875Z,96.44
2017-12-10T23:40:46.191Z,96.32
2017-12-10T23:43:15.237Z,96.73
2017-12-10T23:45:43.544Z,96.88
2017-12-10T23:48:11.825Z,97.38
2017-12-10T23:50:40.102Z,97.67
2017-12-10T23:53:08.393Z,97.10
2017-12-10T23:55:36.664Z,97.05
2017-12-10T23:58:06.857Z,97.60
